Jesus Maria, Argentina
Current Conditions -  °F | °C
As of 8:00 PM on Thursday 18 Dec 2014 (Local Time) from SAAR Reporting Station
Clear Clear  
Wind Chill: 82°   Ceiling: Unl
Heat Index: 83°   Visibility: 6mi
Dew Point: 61°   Wind: 7mph
Humidity: 48%   Direction: 360°N
Pressure: 29.74"   Gusts: NA
Location:  32.67°S, 60.8°W
Report Text: SAAR 182300Z 36006KT CAVOK 28/16 Q1007
Loading
Personal Weather Stations






























Interactive Weather Map New forecast layout! Learn more

10-Day Weather Forecast

Advertisements
Track Severe Weather on mobile